Time;durP1;ratioP1;P1;durP2;ratioP2;P2;SDS_P1;SDS_P2;PMS_P1;PMS_P2;Temp;Humidity;BMP_temperature;BMP_pressure;BME280_temperature;BME280_humidity;BME280_pressure;Samples;Min_cycle;Max_cycle;Signal;HPM_P1;HPM_P2
2022/10/22 00:00:48;;;;;;;4.22;1.50;;;;;;;;;;8267147;28;20235;-63
2022/10/22 00:04:49;;;;;;;4.03;1.40;;;;;;;;;;8269157;28;20438;-63
2022/10/22 00:08:49;;;;;;;7.75;1.52;;;;;;;;;;8265048;28;20025;-63
2022/10/22 00:12:49;;;;;;;5.45;1.45;;;;;;;;;;8266810;28;20289;-63
2022/10/22 00:16:49;;;;;;;3.80;1.60;;;;;;;;;;8264747;28;20030;-63
2022/10/22 00:20:49;;;;;;;3.00;1.10;;;;;;;;;;8267522;28;20104;-63
2022/10/22 00:24:50;;;;;;;6.40;1.40;;;;;;;;;;8267094;28;20025;-63
2022/10/22 00:28:50;;;;;;;2.40;1.25;;;;;;;;;;8267235;28;20134;-63
2022/10/22 00:32:50;;;;;;;2.10;0.80;;;;;;;;;;8267190;28;20154;-63
2022/10/22 00:36:51;;;;;;;1.63;0.82;;;;;;;;;;8267120;28;20028;-63
2022/10/22 00:40:51;;;;;;;2.22;0.90;;;;;;;;;;8265700;28;20022;-63
2022/10/22 00:45:03;;;;;;;2.22;1.00;;;;;;;;;;8265631;28;20566;-63
2022/10/22 00:49:04;;;;;;;1.88;0.93;;;;;;;;;;8267473;28;20038;-63
2022/10/22 00:53:07;;;;;;;3.38;1.23;;;;;;;;;;8266315;28;20119;-63
2022/10/22 00:57:07;;;;;;;1.52;1.00;;;;;;;;;;8263866;28;20029;-63
2022/10/22 01:01:09;;;;;;;3.53;1.15;;;;;;;;;;8264812;28;20573;-63
2022/10/22 01:05:10;;;;;;;2.30;1.13;;;;;;;;;;8264969;28;20942;-63
2022/10/22 01:09:10;;;;;;;1.58;0.95;;;;;;;;;;8266548;28;20021;-63
2022/10/22 01:13:24;;;;;;;3.15;1.23;;;;;;;;;;8264536;28;20021;-63
2022/10/22 01:17:43;;;;;;;1.42;0.93;;;;;;;;;;8265285;28;21140;-63
2022/10/22 01:21:51;;;;;;;4.20;1.23;;;;;;;;;;8262880;28;20543;-63
2022/10/22 01:26:10;;;;;;;2.45;1.30;;;;;;;;;;8264904;28;20653;-63
2022/10/22 01:30:11;;;;;;;2.05;1.20;;;;;;;;;;8263539;28;20565;-63
2022/10/22 01:34:13;;;;;;;9.32;1.27;;;;;;;;;;8265055;28;20479;-63
2022/10/22 01:38:16;;;;;;;2.75;1.27;;;;;;;;;;8264832;28;20351;-63
2022/10/22 01:42:16;;;;;;;1.80;0.90;;;;;;;;;;8264770;28;20571;-63
2022/10/22 01:46:17;;;;;;;2.33;1.10;;;;;;;;;;8264287;28;20621;-63
2022/10/22 01:50:17;;;;;;;5.82;1.20;;;;;;;;;;8263449;28;20115;-63
2022/10/22 01:54:28;;;;;;;1.95;1.10;;;;;;;;;;8265039;28;20031;-63
2022/10/22 01:58:36;;;;;;;3.00;1.23;;;;;;;;;;8266838;28;20691;-63
2022/10/22 02:02:41;;;;;;;3.60;0.90;;;;;;;;;;8264431;28;20029;-63
2022/10/22 02:06:42;;;;;;;3.38;1.00;;;;;;;;;;8266120;28;20036;-63
2022/10/22 02:10:44;;;;;;;1.30;0.85;;;;;;;;;;8265757;28;20025;-63
2022/10/22 02:14:45;;;;;;;3.75;0.90;;;;;;;;;;8264708;28;20432;-63
2022/10/22 02:18:46;;;;;;;2.55;0.95;;;;;;;;;;8264219;28;20160;-62
2022/10/22 02:22:46;;;;;;;1.83;0.90;;;;;;;;;;8263516;28;20573;-63
2022/10/22 02:26:46;;;;;;;3.40;1.38;;;;;;;;;;8264219;28;20076;-63
2022/10/22 02:30:50;;;;;;;2.60;0.88;;;;;;;;;;8263903;28;20382;-63
2022/10/22 02:34:51;;;;;;;4.28;0.85;;;;;;;;;;8262642;28;20036;-63
2022/10/22 02:38:52;;;;;;;1.98;0.90;;;;;;;;;;8263192;28;20064;-63
2022/10/22 02:42:52;;;;;;;2.25;0.90;;;;;;;;;;8261568;28;20036;-63
2022/10/22 02:46:52;;;;;;;1.65;0.82;;;;;;;;;;8263243;28;20718;-62
2022/10/22 02:50:53;;;;;;;3.63;0.73;;;;;;;;;;8262988;28;20032;-62
2022/10/22 02:54:53;;;;;;;3.17;1.00;;;;;;;;;;8263934;28;20818;-63
2022/10/22 02:58:53;;;;;;;1.67;0.90;;;;;;;;;;8261609;28;20503;-63
2022/10/22 03:02:53;;;;;;;2.17;0.70;;;;;;;;;;8261562;28;20049;-63
2022/10/22 03:06:53;;;;;;;1.48;0.50;;;;;;;;;;8262669;28;20304;-62
2022/10/22 03:10:54;;;;;;;5.50;1.07;;;;;;;;;;8263009;28;20075;-62
2022/10/22 03:14:54;;;;;;;1.95;0.80;;;;;;;;;;8263522;28;20268;-63
2022/10/22 03:18:54;;;;;;;2.50;1.00;;;;;;;;;;8260782;28;20037;-62
2022/10/22 03:22:55;;;;;;;2.15;0.80;;;;;;;;;;8261826;28;20393;-62
2022/10/22 03:26:56;;;;;;;1.40;0.60;;;;;;;;;;8260496;28;20586;-63
2022/10/22 03:30:56;;;;;;;2.75;0.70;;;;;;;;;;8260163;28;21571;-62
2022/10/22 03:34:56;;;;;;;0.50;0.50;;;;;;;;;;8262742;28;21599;-62
2022/10/22 03:38:57;;;;;;;0.60;0.52;;;;;;;;;;8261916;28;20063;-62
2022/10/22 03:42:58;;;;;;;1.98;0.60;;;;;;;;;;8261355;28;20030;-62
2022/10/22 03:46:58;;;;;;;1.57;0.67;;;;;;;;;;8260857;28;20433;-62
2022/10/22 03:50:58;;;;;;;5.03;0.85;;;;;;;;;;8261240;28;20287;-62
2022/10/22 03:54:58;;;;;;;2.08;0.80;;;;;;;;;;8261484;28;20031;-62
2022/10/22 03:58:59;;;;;;;1.63;0.70;;;;;;;;;;8261820;28;20368;-62
2022/10/22 04:02:59;;;;;;;4.05;1.13;;;;;;;;;;8260674;28;20310;-62
2022/10/22 04:07:00;;;;;;;2.85;0.88;;;;;;;;;;8261947;28;20038;-62
2022/10/22 04:11:00;;;;;;;3.25;0.90;;;;;;;;;;8260379;28;20323;-62
2022/10/22 04:15:00;;;;;;;2.43;0.60;;;;;;;;;;8261850;28;20588;-62
2022/10/22 04:19:00;;;;;;;1.27;0.60;;;;;;;;;;8260265;28;20879;-62
2022/10/22 04:23:00;;;;;;;0.88;0.70;;;;;;;;;;8261127;28;20040;-62
2022/10/22 04:27:01;;;;;;;1.50;0.80;;;;;;;;;;8261223;28;20025;-62
2022/10/22 04:31:06;;;;;;;1.70;0.60;;;;;;;;;;8259449;28;20107;-62
2022/10/22 04:35:06;;;;;;;1.30;0.55;;;;;;;;;;8260828;28;20044;-62
2022/10/22 04:39:07;;;;;;;2.17;0.50;;;;;;;;;;8264916;28;20029;-62
2022/10/22 04:43:07;;;;;;;0.68;0.60;;;;;;;;;;8267267;28;20265;-62
2022/10/22 04:47:07;;;;;;;1.13;0.52;;;;;;;;;;8265170;28;20033;-62
2022/10/22 04:51:09;;;;;;;2.65;0.60;;;;;;;;;;8265562;28;20026;-62
2022/10/22 04:55:09;;;;;;;2.38;0.60;;;;;;;;;;8266804;28;20052;-62
2022/10/22 04:59:11;;;;;;;1.30;0.65;;;;;;;;;;8267349;28;20029;-62
2022/10/22 05:03:11;;;;;;;2.22;0.75;;;;;;;;;;8266249;28;20045;-62
2022/10/22 05:07:11;;;;;;;0.85;0.80;;;;;;;;;;8266115;28;20223;-62
2022/10/22 05:11:22;;;;;;;1.02;0.60;;;;;;;;;;8265982;28;20101;-62
2022/10/22 05:15:22;;;;;;;0.90;0.65;;;;;;;;;;8267930;28;20152;-62
2022/10/22 05:19:24;;;;;;;2.55;0.70;;;;;;;;;;8265334;28;20049;-62
2022/10/22 05:23:24;;;;;;;2.05;0.60;;;;;;;;;;8265189;28;20117;-62
2022/10/22 05:27:24;;;;;;;2.83;0.80;;;;;;;;;;8264301;28;20560;-62
2022/10/22 05:31:25;;;;;;;1.50;0.80;;;;;;;;;;8264085;28;20040;-62
2022/10/22 05:35:25;;;;;;;0.63;0.50;;;;;;;;;;8264704;28;20530;-62
2022/10/22 05:39:25;;;;;;;1.97;0.87;;;;;;;;;;8265040;28;20222;-62
2022/10/22 05:43:25;;;;;;;2.00;0.68;;;;;;;;;;8261078;28;20641;-62
2022/10/22 05:47:27;;;;;;;1.35;0.68;;;;;;;;;;8263709;28;20898;-62
2022/10/22 05:51:29;;;;;;;4.57;0.80;;;;;;;;;;8261073;28;20025;-62
2022/10/22 05:55:29;;;;;;;4.20;0.55;;;;;;;;;;8260402;28;20033;-62
2022/10/22 05:59:29;;;;;;;8.43;0.80;;;;;;;;;;8264436;28;20530;-62
2022/10/22 06:03:30;;;;;;;0.68;0.68;;;;;;;;;;8260772;28;20845;-63
2022/10/22 06:07:32;;;;;;;0.80;0.60;;;;;;;;;;8262923;28;20746;-62
2022/10/22 06:11:32;;;;;;;1.23;0.52;;;;;;;;;;8261758;28;20414;-62
2022/10/22 06:15:32;;;;;;;0.70;0.63;;;;;;;;;;8260404;28;20049;-62
2022/10/22 06:19:33;;;;;;;3.58;0.80;;;;;;;;;;8261542;28;20673;-62
2022/10/22 06:23:35;;;;;;;3.47;0.80;;;;;;;;;;8260971;28;20144;-62
2022/10/22 06:27:35;;;;;;;2.35;0.70;;;;;;;;;;8261566;28;20025;-62
2022/10/22 06:31:35;;;;;;;3.95;0.70;;;;;;;;;;8260274;28;20037;-62
2022/10/22 06:35:36;;;;;;;1.63;0.70;;;;;;;;;;8262477;28;20092;-62
2022/10/22 06:39:36;;;;;;;1.55;0.60;;;;;;;;;;8260767;28;20060;-62
2022/10/22 06:43:36;;;;;;;8.10;0.90;;;;;;;;;;8260471;28;20709;-62
2022/10/22 06:47:36;;;;;;;2.42;0.60;;;;;;;;;;8263763;28;20341;-62
2022/10/22 06:51:36;;;;;;;4.07;0.60;;;;;;;;;;8263244;28;20079;-63
2022/10/22 06:55:37;;;;;;;2.60;0.60;;;;;;;;;;8262608;28;20736;-63
2022/10/22 06:59:37;;;;;;;3.00;0.50;;;;;;;;;;8264348;28;20398;-62
2022/10/22 07:03:37;;;;;;;1.58;0.40;;;;;;;;;;8262646;28;20495;-62
2022/10/22 07:07:38;;;;;;;0.63;0.52;;;;;;;;;;8263769;28;20021;-62
2022/10/22 07:11:42;;;;;;;2.00;0.40;;;;;;;;;;8261453;28;20135;-62
2022/10/22 07:15:42;;;;;;;0.75;0.43;;;;;;;;;;8263474;28;20135;-62
2022/10/22 07:19:42;;;;;;;1.15;0.80;;;;;;;;;;8264189;28;20022;-62
2022/10/22 07:23:43;;;;;;;0.95;0.85;;;;;;;;;;8260190;28;20022;-62
2022/10/22 07:27:44;;;;;;;1.92;0.88;;;;;;;;;;8261124;28;20778;-62
2022/10/22 07:31:44;;;;;;;1.30;0.43;;;;;;;;;;8263440;28;20128;-61
2022/10/22 07:35:44;;;;;;;0.52;0.50;;;;;;;;;;8260872;28;20025;-62
2022/10/22 07:39:45;;;;;;;3.60;0.60;;;;;;;;;;8262173;28;20442;-62
2022/10/22 07:43:45;;;;;;;1.60;0.60;;;;;;;;;;8260958;28;20155;-62
2022/10/22 07:47:46;;;;;;;1.50;0.47;;;;;;;;;;8261619;28;20505;-62
2022/10/22 07:51:46;;;;;;;4.75;0.98;;;;;;;;;;8261996;28;20027;-62
2022/10/22 07:55:47;;;;;;;0.90;0.70;;;;;;;;;;8260966;28;20445;-63
2022/10/22 07:59:48;;;;;;;2.25;0.50;;;;;;;;;;8262154;28;20033;-63
2022/10/22 08:03:48;;;;;;;1.55;0.70;;;;;;;;;;8259785;28;20115;-63
2022/10/22 08:07:48;;;;;;;1.05;0.60;;;;;;;;;;8262042;28;20157;-62
2022/10/22 08:11:49;;;;;;;2.42;0.80;;;;;;;;;;8262417;28;20709;-63
2022/10/22 08:15:49;;;;;;;1.05;0.73;;;;;;;;;;8266506;28;20030;-63
2022/10/22 08:19:49;;;;;;;1.90;0.60;;;;;;;;;;8268208;28;20076;-63
2022/10/22 08:23:49;;;;;;;1.15;0.55;;;;;;;;;;8266788;28;20049;-63
2022/10/22 08:27:49;;;;;;;1.02;0.68;;;;;;;;;;8267720;28;20346;-63
2022/10/22 08:31:50;;;;;;;1.15;0.60;;;;;;;;;;8267146;28;20069;-63
2022/10/22 08:35:51;;;;;;;1.50;0.70;;;;;;;;;;8267906;28;20087;-63
2022/10/22 08:39:51;;;;;;;2.00;0.90;;;;;;;;;;8266261;28;20037;-63
2022/10/22 08:44:03;;;;;;;1.73;0.90;;;;;;;;;;8268856;28;20064;-63
2022/10/22 08:48:03;;;;;;;2.35;0.82;;;;;;;;;;8267495;28;20088;-63
2022/10/22 08:52:04;;;;;;;1.73;1.00;;;;;;;;;;8265457;28;20139;-63
2022/10/22 08:56:04;;;;;;;5.88;1.40;;;;;;;;;;8267330;28;20026;-62
2022/10/22 09:00:09;;;;;;;2.33;0.70;;;;;;;;;;8266275;28;20041;-63
2022/10/22 09:04:09;;;;;;;1.85;0.65;;;;;;;;;;8266524;28;20141;-63
2022/10/22 09:08:10;;;;;;;5.80;1.35;;;;;;;;;;8266400;28;20439;-62
2022/10/22 09:12:13;;;;;;;3.75;1.55;;;;;;;;;;8264466;28;20014;-63
2022/10/22 09:16:16;;;;;;;3.17;0.80;;;;;;;;;;8265886;28;20080;-62
2022/10/22 09:20:25;;;;;;;3.97;1.00;;;;;;;;;;8265738;28;20018;-62
2022/10/22 09:24:37;;;;;;;3.13;0.90;;;;;;;;;;8263397;28;20505;-63
2022/10/22 09:28:37;;;;;;;4.13;1.05;;;;;;;;;;8266838;28;20026;-63
2022/10/22 09:32:38;;;;;;;2.85;1.10;;;;;;;;;;8267451;28;20038;-62
2022/10/22 09:36:38;;;;;;;2.85;0.77;;;;;;;;;;8266226;28;20033;-63
2022/10/22 09:40:42;;;;;;;4.37;1.00;;;;;;;;;;8264037;28;20030;-62
2022/10/22 09:44:42;;;;;;;7.00;0.93;;;;;;;;;;8266363;28;20289;-63
2022/10/22 09:49:03;;;;;;;4.75;0.90;;;;;;;;;;8267023;28;20037;-61
2022/10/22 09:53:10;;;;;;;4.68;0.88;;;;;;;;;;8265488;28;20029;-62
2022/10/22 09:57:20;;;;;;;1.67;0.90;;;;;;;;;;8265162;28;20029;-62
2022/10/22 10:01:23;;;;;;;1.70;0.90;;;;;;;;;;8264974;28;20040;-62
2022/10/22 10:05:30;;;;;;;2.47;1.00;;;;;;;;;;8263454;28;20453;-62
2022/10/22 10:09:33;;;;;;;3.65;0.95;;;;;;;;;;8263854;28;20018;-62
2022/10/22 10:13:44;;;;;;;4.28;1.08;;;;;;;;;;8263565;28;20106;-62
2022/10/22 10:17:47;;;;;;;2.53;0.95;;;;;;;;;;8264419;28;20693;-62
2022/10/22 10:21:53;;;;;;;3.43;1.00;;;;;;;;;;8265506;28;20149;-62
2022/10/22 10:26:16;;;;;;;2.97;0.93;;;;;;;;;;8265574;28;20116;-62
2022/10/22 10:30:17;;;;;;;3.97;1.10;;;;;;;;;;8263537;28;20060;-63
2022/10/22 10:34:25;;;;;;;7.10;1.25;;;;;;;;;;8263438;28;20505;-62
2022/10/22 10:38:28;;;;;;;11.18;1.20;;;;;;;;;;8263953;28;20528;-63
2022/10/22 10:42:43;;;;;;;3.67;1.00;;;;;;;;;;8263083;28;20445;-63
2022/10/22 10:46:46;;;;;;;3.85;0.88;;;;;;;;;;8262398;28;20123;-63
2022/10/22 10:51:01;;;;;;;4.28;1.38;;;;;;;;;;8263897;28;20360;-63
2022/10/22 10:55:07;;;;;;;6.47;0.98;;;;;;;;;;8263643;28;20538;-63
2022/10/22 10:59:31;;;;;;;3.78;1.10;;;;;;;;;;8263432;28;21032;-63
2022/10/22 11:03:31;;;;;;;2.00;0.88;;;;;;;;;;8261707;28;20092;-63
2022/10/22 11:07:43;;;;;;;4.10;0.98;;;;;;;;;;8264160;28;20017;-63
2022/10/22 11:11:52;;;;;;;3.00;0.93;;;;;;;;;;8262972;28;20041;-63
2022/10/22 11:16:09;;;;;;;5.70;1.33;;;;;;;;;;8261125;28;20088;-63
2022/10/22 11:20:24;;;;;;;6.78;1.80;;;;;;;;;;8262619;28;20391;-62
2022/10/22 11:24:26;;;;;;;4.30;1.30;;;;;;;;;;8262845;28;20025;-62
2022/10/22 11:28:36;;;;;;;6.03;1.00;;;;;;;;;;8262035;28;20076;-63
2022/10/22 11:32:37;;;;;;;4.68;1.30;;;;;;;;;;8262197;28;20892;-63
2022/10/22 11:36:38;;;;;;;5.70;1.00;;;;;;;;;;8260315;28;20054;-62
2022/10/22 11:40:55;;;;;;;2.83;0.90;;;;;;;;;;8262420;28;20025;-63
2022/10/22 11:44:59;;;;;;;6.55;1.17;;;;;;;;;;8262670;28;20256;-63
2022/10/22 11:49:04;;;;;;;4.57;1.10;;;;;;;;;;8268292;28;20034;-63
2022/10/22 11:53:15;;;;;;;5.38;1.00;;;;;;;;;;8272150;28;20875;-63
2022/10/22 11:57:17;;;;;;;5.03;1.10;;;;;;;;;;8272234;28;20021;-62
2022/10/22 12:01:20;;;;;;;5.05;1.20;;;;;;;;;;8273418;28;20660;-62
2022/10/22 12:05:21;;;;;;;7.45;1.25;;;;;;;;;;8271610;28;20025;-63
2022/10/22 12:09:22;;;;;;;5.80;1.13;;;;;;;;;;8271481;28;20018;-62
2022/10/22 12:13:24;;;;;;;3.60;1.13;;;;;;;;;;8271801;28;20105;-63
2022/10/22 12:17:25;;;;;;;6.00;1.30;;;;;;;;;;8271838;28;20427;-63
2022/10/22 12:21:25;;;;;;;3.35;1.02;;;;;;;;;;8272934;28;20054;-62
2022/10/22 12:25:28;;;;;;;8.32;1.65;;;;;;;;;;8270828;28;20026;-62
2022/10/22 12:29:30;;;;;;;8.52;1.52;;;;;;;;;;8274181;28;20080;-62
2022/10/22 12:33:31;;;;;;;3.63;1.30;;;;;;;;;;8271825;28;20037;-62
2022/10/22 12:37:33;;;;;;;5.72;1.33;;;;;;;;;;8272976;28;20316;-62
2022/10/22 12:41:35;;;;;;;4.28;1.10;;;;;;;;;;8271237;28;20472;-62
2022/10/22 12:45:35;;;;;;;5.32;1.08;;;;;;;;;;8273150;28;20053;-62
2022/10/22 12:49:40;;;;;;;4.43;1.02;;;;;;;;;;8272016;28;20581;-63
2022/10/22 12:53:49;;;;;;;3.42;0.90;;;;;;;;;;8270088;28;20030;-62
2022/10/22 12:57:49;;;;;;;5.82;1.15;;;;;;;;;;8272139;28;20036;-62
2022/10/22 13:01:50;;;;;;;2.67;1.20;;;;;;;;;;8265809;28;20253;-62
2022/10/22 13:05:50;;;;;;;4.82;1.13;;;;;;;;;;8266062;28;20196;-62
2022/10/22 13:09:58;;;;;;;3.45;0.90;;;;;;;;;;8266390;28;20054;-62
2022/10/22 13:14:02;;;;;;;4.50;1.35;;;;;;;;;;8266386;28;20021;-62
2022/10/22 13:18:05;;;;;;;4.40;1.27;;;;;;;;;;8266085;28;20068;-62
2022/10/22 13:22:25;;;;;;;3.22;1.15;;;;;;;;;;8265105;28;20053;-63
2022/10/22 13:26:36;;;;;;;3.95;1.00;;;;;;;;;;8264208;28;20030;-63
2022/10/22 13:30:37;;;;;;;1.90;0.82;;;;;;;;;;8266045;28;20110;-63
2022/10/22 13:34:37;;;;;;;4.72;1.20;;;;;;;;;;8263889;28;20324;-62
2022/10/22 13:38:37;;;;;;;2.42;0.88;;;;;;;;;;8266837;28;20060;-62
2022/10/22 13:42:38;;;;;;;3.72;1.15;;;;;;;;;;8266617;28;20033;-62
2022/10/22 13:46:41;;;;;;;5.80;1.10;;;;;;;;;;8265197;28;20042;-62
2022/10/22 13:50:41;;;;;;;6.38;1.00;;;;;;;;;;8264141;28;20403;-63
2022/10/22 13:54:42;;;;;;;3.35;1.10;;;;;;;;;;8265436;28;20060;-63
2022/10/22 13:58:43;;;;;;;2.90;0.85;;;;;;;;;;8265691;28;20026;-63
2022/10/22 14:02:45;;;;;;;2.65;1.38;;;;;;;;;;8264181;28;20042;-65
2022/10/22 14:06:45;;;;;;;2.33;0.90;;;;;;;;;;8265811;28;20034;-64
2022/10/22 14:10:45;;;;;;;2.65;1.30;;;;;;;;;;8263987;28;20025;-63
2022/10/22 14:14:45;;;;;;;2.20;0.93;;;;;;;;;;8265099;28;20502;-63
2022/10/22 14:18:46;;;;;;;7.68;1.15;;;;;;;;;;8263737;28;20406;-63
2022/10/22 14:22:47;;;;;;;2.75;1.10;;;;;;;;;;8265209;28;20032;-63
2022/10/22 14:26:47;;;;;;;3.25;1.02;;;;;;;;;;8262676;28;20036;-63
2022/10/22 14:30:48;;;;;;;1.65;0.90;;;;;;;;;;8262511;28;20037;-63
2022/10/22 14:34:48;;;;;;;3.75;1.05;;;;;;;;;;8264575;28;20493;-63
2022/10/22 14:38:48;;;;;;;2.72;0.90;;;;;;;;;;8265510;28;20340;-64
2022/10/22 14:42:49;;;;;;;6.18;1.05;;;;;;;;;;8262450;28;20770;-63
2022/10/22 14:46:53;;;;;;;3.42;0.90;;;;;;;;;;8262026;28;20054;-63
2022/10/22 14:50:53;;;;;;;3.72;0.90;;;;;;;;;;8261834;28;20163;-63
2022/10/22 14:54:53;;;;;;;2.20;0.90;;;;;;;;;;8255976;28;20099;-63
2022/10/22 14:58:53;;;;;;;2.25;0.75;;;;;;;;;;8262118;28;20458;-63
2022/10/22 15:02:54;;;;;;;4.78;1.13;;;;;;;;;;8261065;28;20030;-63
2022/10/22 15:06:55;;;;;;;2.97;0.90;;;;;;;;;;8261450;28;20028;-63
2022/10/22 15:10:59;;;;;;;6.20;1.33;;;;;;;;;;8263356;28;20542;-63
2022/10/22 15:14:59;;;;;;;5.53;1.02;;;;;;;;;;8264443;28;20490;-62
2022/10/22 15:19:00;;;;;;;6.32;1.10;;;;;;;;;;8261388;28;20057;-63
2022/10/22 15:23:00;;;;;;;4.55;1.10;;;;;;;;;;8260621;28;20337;-62
2022/10/22 15:27:02;;;;;;;7.78;1.10;;;;;;;;;;8259874;28;20384;-63
2022/10/22 15:31:02;;;;;;;6.00;1.27;;;;;;;;;;8260660;28;20085;-63
2022/10/22 15:35:04;;;;;;;3.38;1.20;;;;;;;;;;8260338;28;20073;-63
2022/10/22 15:39:08;;;;;;;4.53;1.13;;;;;;;;;;8259553;28;20643;-63
2022/10/22 15:43:08;;;;;;;5.07;1.00;;;;;;;;;;8260033;28;20017;-63
2022/10/22 15:47:09;;;;;;;3.83;1.25;;;;;;;;;;8261805;28;20075;-63
2022/10/22 15:51:13;;;;;;;7.37;1.30;;;;;;;;;;8266526;28;20096;-63
2022/10/22 15:55:13;;;;;;;2.13;1.00;;;;;;;;;;8266820;28;20017;-63
2022/10/22 15:59:14;;;;;;;4.95;1.00;;;;;;;;;;8268248;28;20056;-62
2022/10/22 16:03:15;;;;;;;4.88;1.35;;;;;;;;;;8266801;28;20792;-63
2022/10/22 16:07:15;;;;;;;2.58;1.27;;;;;;;;;;8268755;28;20028;-62
2022/10/22 16:11:15;;;;;;;8.77;2.27;;;;;;;;;;8268304;28;20091;-62
2022/10/22 16:15:15;;;;;;;4.37;1.70;;;;;;;;;;8265180;28;20353;-63
2022/10/22 16:19:16;;;;;;;6.10;1.83;;;;;;;;;;8268168;28;20025;-65
2022/10/22 16:23:17;;;;;;;5.28;1.85;;;;;;;;;;8266354;28;20124;-62
2022/10/22 16:27:17;;;;;;;4.95;2.10;;;;;;;;;;8268089;28;20502;-62
2022/10/22 16:31:21;;;;;;;3.47;1.55;;;;;;;;;;8266038;28;20533;-62
2022/10/22 16:35:21;;;;;;;7.00;2.03;;;;;;;;;;8266076;28;20018;-62
2022/10/22 16:39:22;;;;;;;7.13;1.98;;;;;;;;;;8270909;28;20032;-62
2022/10/22 16:43:22;;;;;;;6.32;2.67;;;;;;;;;;8271346;28;20479;-62
2022/10/22 16:47:22;;;;;;;9.25;2.72;;;;;;;;;;8270172;28;20050;-62
2022/10/22 16:51:24;;;;;;;6.35;2.65;;;;;;;;;;8270887;28;20029;-62
2022/10/22 16:55:24;;;;;;;6.38;2.95;;;;;;;;;;8269148;28;20707;-62
2022/10/22 16:59:24;;;;;;;5.75;2.83;;;;;;;;;;8269542;28;20049;-62
2022/10/22 17:03:24;;;;;;;6.38;2.55;;;;;;;;;;8269388;28;20029;-62
2022/10/22 17:07:25;;;;;;;6.37;2.47;;;;;;;;;;8268442;28;20697;-62
2022/10/22 17:11:25;;;;;;;4.65;1.23;;;;;;;;;;8270372;28;20268;-62
2022/10/22 17:15:25;;;;;;;3.67;1.67;;;;;;;;;;8269931;28;20037;-62
2022/10/22 17:19:26;;;;;;;4.57;1.48;;;;;;;;;;8268595;28;20025;-62
2022/10/22 17:23:29;;;;;;;2.10;1.13;;;;;;;;;;8270666;28;20035;-62
2022/10/22 17:27:29;;;;;;;6.10;1.17;;;;;;;;;;8268972;28;20059;-63
2022/10/22 17:31:31;;;;;;;3.95;1.08;;;;;;;;;;8269448;28;20060;-62
2022/10/22 17:35:32;;;;;;;4.93;1.38;;;;;;;;;;8269007;28;20052;-62
2022/10/22 17:39:32;;;;;;;5.55;1.58;;;;;;;;;;8267743;28;20569;-62
2022/10/22 17:43:34;;;;;;;2.22;0.90;;;;;;;;;;8270439;28;20026;-62
2022/10/22 17:47:35;;;;;;;4.07;1.08;;;;;;;;;;8267467;28;20132;-63
2022/10/22 17:51:35;;;;;;;3.38;1.10;;;;;;;;;;8268106;28;20045;-63
2022/10/22 17:55:35;;;;;;;4.32;1.30;;;;;;;;;;8267699;28;20820;-62
2022/10/22 17:59:35;;;;;;;4.73;1.23;;;;;;;;;;8271133;28;20037;-62
2022/10/22 18:03:36;;;;;;;3.08;1.30;;;;;;;;;;8268174;28;20280;-62
2022/10/22 18:07:36;;;;;;;4.63;1.70;;;;;;;;;;8268712;28;20154;-63
2022/10/22 18:11:37;;;;;;;4.57;1.10;;;;;;;;;;8269834;28;20025;-63
2022/10/22 18:15:37;;;;;;;4.70;1.30;;;;;;;;;;8270423;28;20037;-63
2022/10/22 18:19:38;;;;;;;3.67;1.33;;;;;;;;;;8268364;28;20132;-62
2022/10/22 18:23:38;;;;;;;2.72;1.20;;;;;;;;;;8268428;28;20022;-62
2022/10/22 18:27:38;;;;;;;3.97;1.30;;;;;;;;;;8264232;28;20061;-63
2022/10/22 18:31:39;;;;;;;5.35;1.30;;;;;;;;;;8266760;28;20128;-63
2022/10/22 18:35:40;;;;;;;6.63;1.20;;;;;;;;;;8265707;28;20025;-62
2022/10/22 18:39:40;;;;;;;3.78;1.35;;;;;;;;;;8266865;28;20026;-63
2022/10/22 18:43:40;;;;;;;2.35;1.33;;;;;;;;;;8267434;28;20132;-63
2022/10/22 18:47:40;;;;;;;8.82;1.50;;;;;;;;;;8268306;28;20045;-62
2022/10/22 18:51:41;;;;;;;3.37;1.13;;;;;;;;;;8265429;28;20722;-62
2022/10/22 18:55:41;;;;;;;3.10;1.10;;;;;;;;;;8266591;28;20323;-62
2022/10/22 18:59:41;;;;;;;4.57;1.10;;;;;;;;;;8265758;28;20029;-62
2022/10/22 19:03:43;;;;;;;3.53;1.25;;;;;;;;;;8263753;28;20038;-62
2022/10/22 19:07:43;;;;;;;2.50;1.25;;;;;;;;;;8281859;28;20367;-62
2022/10/22 19:11:44;;;;;;;3.20;1.10;;;;;;;;;;8267132;28;20243;-62
2022/10/22 19:15:44;;;;;;;2.35;1.10;;;;;;;;;;8264502;28;20525;-62
2022/10/22 19:19:44;;;;;;;3.03;1.38;;;;;;;;;;8264039;28;20026;-64
2022/10/22 19:23:44;;;;;;;3.80;1.30;;;;;;;;;;8263530;28;20116;-62
2022/10/22 19:27:44;;;;;;;3.00;1.17;;;;;;;;;;8258711;28;20029;-62
2022/10/22 19:31:45;;;;;;;2.50;1.30;;;;;;;;;;8263141;28;20813;-62
2022/10/22 19:35:45;;;;;;;3.88;1.30;;;;;;;;;;8264574;28;20021;-62
2022/10/22 19:39:47;;;;;;;7.37;1.70;;;;;;;;;;8261570;28;20022;-63
2022/10/22 19:43:50;;;;;;;3.90;1.20;;;;;;;;;;8264889;28;20128;-62
2022/10/22 19:47:50;;;;;;;5.55;1.67;;;;;;;;;;8263621;28;20072;-62
2022/10/22 19:51:50;;;;;;;4.03;1.30;;;;;;;;;;8263262;28;20029;-62
2022/10/22 19:55:50;;;;;;;3.85;1.20;;;;;;;;;;8265278;28;20091;-62
2022/10/22 19:59:50;;;;;;;4.40;1.23;;;;;;;;;;8265667;28;20704;-62
2022/10/22 20:03:51;;;;;;;4.18;1.30;;;;;;;;;;8264430;28;20284;-62
2022/10/22 20:07:51;;;;;;;3.83;1.20;;;;;;;;;;8266781;28;20029;-62
2022/10/22 20:11:52;;;;;;;9.30;1.40;;;;;;;;;;8271311;28;20025;-62
2022/10/22 20:15:52;;;;;;;4.17;1.20;;;;;;;;;;8270485;28;20302;-62
2022/10/22 20:19:52;;;;;;;4.68;1.50;;;;;;;;;;8273809;28;20022;-62
2022/10/22 20:23:53;;;;;;;1.75;1.13;;;;;;;;;;8270225;28;20088;-62
2022/10/22 20:27:53;;;;;;;3.97;1.15;;;;;;;;;;8270344;28;20742;-62
2022/10/22 20:31:54;;;;;;;3.43;1.67;;;;;;;;;;8269890;28;20042;-62
2022/10/22 20:36:01;;;;;;;3.63;1.35;;;;;;;;;;8266554;28;20293;-63
2022/10/22 20:40:01;;;;;;;5.30;1.67;;;;;;;;;;8269635;28;20030;-62
2022/10/22 20:44:01;;;;;;;4.90;1.38;;;;;;;;;;8268437;28;20029;-62
2022/10/22 20:48:02;;;;;;;3.77;1.17;;;;;;;;;;8269769;28;20637;-62
2022/10/22 20:52:02;;;;;;;2.63;1.38;;;;;;;;;;8269441;28;20315;-62
2022/10/22 20:56:02;;;;;;;3.25;1.25;;;;;;;;;;8268818;28;20022;-62
2022/10/22 21:00:03;;;;;;;3.85;1.10;;;;;;;;;;8269731;28;20109;-62
2022/10/22 21:04:04;;;;;;;2.22;1.13;;;;;;;;;;8278375;28;20421;-62
2022/10/22 21:08:04;;;;;;;3.00;1.23;;;;;;;;;;8270611;28;20050;-62
2022/10/22 21:12:06;;;;;;;3.00;1.48;;;;;;;;;;8272247;28;20045;-62
2022/10/22 21:16:07;;;;;;;4.20;0.95;;;;;;;;;;8268952;28;20140;-62
2022/10/22 21:20:07;;;;;;;6.00;1.10;;;;;;;;;;8267171;28;20028;-62
2022/10/22 21:24:07;;;;;;;4.87;1.10;;;;;;;;;;8269034;28;20057;-62
2022/10/22 21:28:08;;;;;;;2.20;1.10;;;;;;;;;;8269674;28;20280;-62
2022/10/22 21:32:08;;;;;;;2.70;1.08;;;;;;;;;;8269023;28;20052;-62
2022/10/22 21:36:08;;;;;;;2.92;1.30;;;;;;;;;;8267901;28;20443;-62
2022/10/22 21:40:09;;;;;;;3.92;1.10;;;;;;;;;;8267942;28;20029;-62
2022/10/22 21:44:09;;;;;;;6.63;1.10;;;;;;;;;;8269197;28;20987;-62
2022/10/22 21:48:10;;;;;;;3.17;1.45;;;;;;;;;;8268061;28;20021;-62
2022/10/22 21:52:11;;;;;;;1.75;1.10;;;;;;;;;;8268692;28;20022;-62
2022/10/22 21:56:18;;;;;;;1.90;1.10;;;;;;;;;;8268530;28;20273;-62
2022/10/22 22:00:20;;;;;;;2.47;1.00;;;;;;;;;;8270539;28;20276;-62
2022/10/22 22:04:20;;;;;;;3.22;1.00;;;;;;;;;;8271078;28;20133;-62
2022/10/22 22:08:20;;;;;;;1.50;0.80;;;;;;;;;;8270689;28;20556;-62
2022/10/22 22:12:20;;;;;;;4.82;0.95;;;;;;;;;;8269823;28;20026;-62
2022/10/22 22:16:28;;;;;;;3.13;1.05;;;;;;;;;;8271118;28;20041;-62
2022/10/22 22:20:29;;;;;;;2.70;1.08;;;;;;;;;;8269755;28;20072;-62
2022/10/22 22:24:30;;;;;;;4.00;1.38;;;;;;;;;;8269010;28;20036;-62
2022/10/22 22:28:30;;;;;;;3.53;1.98;;;;;;;;;;8270795;28;20025;-62
2022/10/22 22:32:31;;;;;;;8.27;3.90;;;;;;;;;;8269795;28;20509;-62
2022/10/22 22:36:32;;;;;;;11.38;5.43;;;;;;;;;;8269663;28;20022;-62
2022/10/22 22:40:33;;;;;;;11.20;5.93;;;;;;;;;;8270193;28;20028;-62
2022/10/22 22:44:33;;;;;;;16.50;6.82;;;;;;;;;;8270129;28;20021;-62
2022/10/22 22:48:33;;;;;;;7.25;4.20;;;;;;;;;;8269776;28;20038;-62
2022/10/22 22:52:33;;;;;;;5.40;3.38;;;;;;;;;;8267593;28;20068;-62
2022/10/22 22:56:34;;;;;;;11.68;5.60;;;;;;;;;;8270308;28;20025;-62
2022/10/22 23:00:34;;;;;;;20.92;9.88;;;;;;;;;;8268807;28;20033;-62
2022/10/22 23:04:34;;;;;;;19.02;8.70;;;;;;;;;;8270280;28;20053;-62
2022/10/22 23:08:35;;;;;;;25.38;11.35;;;;;;;;;;8268449;28;20045;-62
2022/10/22 23:12:35;;;;;;;14.53;6.90;;;;;;;;;;8267988;28;20044;-62
2022/10/22 23:16:36;;;;;;;7.53;3.78;;;;;;;;;;8270070;28;20030;-62
2022/10/22 23:20:37;;;;;;;5.18;2.47;;;;;;;;;;8269951;28;20033;-62
2022/10/22 23:24:38;;;;;;;3.97;1.80;;;;;;;;;;8268287;28;20222;-62
2022/10/22 23:28:38;;;;;;;2.90;1.30;;;;;;;;;;8268724;28;20030;-62
2022/10/22 23:32:38;;;;;;;5.05;1.48;;;;;;;;;;8268553;28;20034;-62
2022/10/22 23:36:39;;;;;;;3.30;1.27;;;;;;;;;;8268185;28;20028;-62
2022/10/22 23:40:39;;;;;;;13.25;6.15;;;;;;;;;;8268399;28;20373;-64
2022/10/22 23:44:39;;;;;;;12.18;4.65;;;;;;;;;;8267437;28;20498;-62
2022/10/22 23:48:39;;;;;;;12.93;6.90;;;;;;;;;;8269289;28;20145;-62
2022/10/22 23:52:40;;;;;;;11.10;5.53;;;;;;;;;;8267795;28;20295;-63
2022/10/22 23:56:40;;;;;;;10.75;4.32;;;;;;;;;;8269133;28;21131;-62
